Malaysia Virtual Airlines Airport Information Service

Langkawi Intl

ICAO: WMKL Country: Malaysia
Latitude: 6.32972 Longitude: 99.7286
Latest Arrival : MH1436 (WMKK-WMKL) Latest Departure : MH1437 (WMKL-WMKK)


WX CaptureLIVE
Data provided by noaa.gov | Fetched at 05:57:28

METAR : WMKL 290500Z VRB03KT 9999 SCT020 29/24 Q1009

TAF : WMKL 282300Z 2900/3000 VRB03KT 9999 FEW010 SCT025 BECMG 2905/2907 12006KT SCT020 TEMPO 2906/2911 5000 TSRA FEW010 FEW017CB BECMG 2911/2912 VRB03KT FEW010 SCT025


Runway Data for WMKL
Data provided by openaviationdata.com

Runway ID Mag Var Hdg Length Elevation Surface ILS Freq ILS Id ILS Slope
3 0 34° 12547 ft 29 ft Asphalt 110.7 ILK 3
21 0 214° 12547 ft 29 ft Asphalt -- -- --

Langkawi Intl, Malaysia
Use only for reference purposes



Not for navigational purposes.